Grizzly Air Cargo 5380


PAKN
King Salmon Airport
King Salmon, Alaska, US
PANI
Aniak Airport
Aniak, Alaska, US

Activity Log

Date Flight Route Aircraft Duration
No Flights Yet

Route Details

Aircraft Information
Primary: Saab 340AF
Backup: Not Available
Route Data
Distance: 220nm
Sched. Duration: 1h 00m
Avg. Duration: 0h 00m (-100m)
Times Flown: 0
Recm'd Route: AKN Q51 SLIIM ANI
Planned Altitude: 20,000ft
Origin Wx: PAKN 290454Z 02004KT 10SM SCT020 M03/M06 A3009 RMK AO2 SLP191 T10281056
Dest. Wx: PANI 290456Z AUTO 00000KT 10SM OVC038 M01/M03 A3018 RMK AO2 SLP214 T10061028 FZRANO
Notes:

Financial History
Total Freight: 0lbs
Average Load: 0lbs/flt
Fuel Used: 0lbs
Avg. Fuel Used: 0lbs/flt
Fuel Expense: $0
Avg. Fuel Expense: $0
Avg. Fuel Cost: $0/lbs
Total Gross Income: $0
Pilot Pay: $0
Total Expenses: $0
Total Revenue: $0
Average Revenue: $0